sensor_id;sensor_type;location;lat;lon;timestamp;P1;durP1;ratioP1;P2;durP2;ratioP2
43429;SDS011;29028;43.234;27.896;2023-01-19T15:03:58;6.38;;;2.58;;
43429;SDS011;29028;43.234;27.896;2023-01-19T15:04:19;5.80;;;2.20;;
43429;SDS011;29028;43.234;27.896;2023-01-19T15:04:40;10.38;;;2.65;;
43429;SDS011;29028;43.234;27.896;2023-01-19T15:05:01;10.33;;;2.80;;
43429;SDS011;29028;43.234;27.896;2023-01-19T15:05:23;8.38;;;2.75;;
43429;SDS011;29028;43.234;27.896;2023-01-19T15:05:44;6.45;;;2.67;;
43429;SDS011;29028;43.234;27.896;2023-01-19T15:06:08;9.05;;;2.63;;
43429;SDS011;29028;43.234;27.896;2023-01-19T15:06:32;10.60;;;2.80;;
43429;SDS011;29028;43.234;27.896;2023-01-19T15:06:59;11.18;;;2.97;;
43429;SDS011;29028;43.234;27.896;2023-01-19T15:07:21;11.07;;;2.80;;
43429;SDS011;29028;43.234;27.896;2023-01-19T15:07:44;12.23;;;2.72;;
43429;SDS011;29028;43.234;27.896;2023-01-19T15:08:07;9.80;;;2.85;;
43429;SDS011;29028;43.234;27.896;2023-01-19T15:08:33;12.52;;;2.92;;
43429;SDS011;29028;43.234;27.896;2023-01-19T15:08:56;7.95;;;2.65;;
43429;SDS011;29028;43.234;27.896;2023-01-19T15:09:18;10.05;;;2.80;;
43429;SDS011;29028;43.234;27.896;2023-01-19T15:09:39;13.32;;;3.08;;
43429;SDS011;29028;43.234;27.896;2023-01-19T15:10:00;14.32;;;3.20;;
43429;SDS011;29028;43.234;27.896;2023-01-19T15:10:21;7.85;;;2.42;;
43429;SDS011;29028;43.234;27.896;2023-01-19T15:10:44;10.25;;;2.67;;
43429;SDS011;29028;43.234;27.896;2023-01-19T15:11:07;10.57;;;2.55;;
43429;SDS011;29028;43.234;27.896;2023-01-19T15:11:30;10.10;;;2.83;;
43429;SDS011;29028;43.234;27.896;2023-01-19T15:11:53;11.27;;;2.78;;
43429;SDS011;29028;43.234;27.896;2023-01-19T15:12:15;12.85;;;3.00;;
43429;SDS011;29028;43.234;27.896;2023-01-19T15:12:37;9.88;;;3.08;;
43429;SDS011;29028;43.234;27.896;2023-01-19T15:12:58;8.95;;;3.00;;
43429;SDS011;29028;43.234;27.896;2023-01-19T15:13:21;7.22;;;2.60;;
43429;SDS011;29028;43.234;27.896;2023-01-19T15:13:44;7.13;;;2.65;;
43429;SDS011;29028;43.234;27.896;2023-01-19T15:14:04;8.02;;;2.58;;
43429;SDS011;29028;43.234;27.896;2023-01-19T15:14:26;8.95;;;2.40;;
43429;SDS011;29028;43.234;27.896;2023-01-19T15:14:48;8.63;;;2.42;;
43429;SDS011;29028;43.234;27.896;2023-01-19T15:15:13;8.10;;;2.90;;
43429;SDS011;29028;43.234;27.896;2023-01-19T15:15:35;9.35;;;2.67;;
43429;SDS011;29028;43.234;27.896;2023-01-19T15:15:57;10.60;;;3.28;;
43429;SDS011;29028;43.234;27.896;2023-01-19T15:16:18;10.37;;;3.50;;
43429;SDS011;29028;43.234;27.896;2023-01-19T15:16:39;11.27;;;3.63;;
43429;SDS011;29028;43.234;27.896;2023-01-19T15:17:02;10.13;;;3.33;;
43429;SDS011;29028;43.234;27.896;2023-01-19T15:17:22;11.15;;;3.40;;
43429;SDS011;29028;43.234;27.896;2023-01-19T15:17:44;7.80;;;2.80;;
43429;SDS011;29028;43.234;27.896;2023-01-19T15:18:08;8.90;;;2.80;;
43429;SDS011;29028;43.234;27.896;2023-01-19T15:18:33;10.35;;;3.22;;
43429;SDS011;29028;43.234;27.896;2023-01-19T15:18:54;8.98;;;3.15;;
43429;SDS011;29028;43.234;27.896;2023-01-19T15:19:17;9.73;;;3.13;;
43429;SDS011;29028;43.234;27.896;2023-01-19T15:19:39;9.40;;;3.00;;
43429;SDS011;29028;43.234;27.896;2023-01-19T15:20:00;9.23;;;2.80;;
43429;SDS011;29028;43.234;27.896;2023-01-19T15:20:22;8.07;;;2.70;;
43429;SDS011;29028;43.234;27.896;2023-01-19T15:20:43;9.00;;;2.70;;
43429;SDS011;29028;43.234;27.896;2023-01-19T15:21:04;10.52;;;3.13;;
43429;SDS011;29028;43.234;27.896;2023-01-19T15:21:26;8.48;;;2.90;;
43429;SDS011;29028;43.234;27.896;2023-01-19T15:21:46;9.43;;;2.83;;
43429;SDS011;29028;43.234;27.896;2023-01-19T15:22:10;8.97;;;2.53;;
43429;SDS011;29028;43.234;27.896;2023-01-19T15:22:31;11.07;;;2.70;;
43429;SDS011;29028;43.234;27.896;2023-01-19T15:22:53;7.50;;;2.33;;
43429;SDS011;29028;43.234;27.896;2023-01-19T15:23:14;8.30;;;2.53;;
43429;SDS011;29028;43.234;27.896;2023-01-19T15:23:35;8.00;;;2.75;;
43429;SDS011;29028;43.234;27.896;2023-01-19T15:23:57;7.05;;;2.60;;
43429;SDS011;29028;43.234;27.896;2023-01-19T15:24:17;5.88;;;2.20;;
43429;SDS011;29028;43.234;27.896;2023-01-19T15:24:38;6.63;;;2.40;;
43429;SDS011;29028;43.234;27.896;2023-01-19T15:25:02;10.48;;;2.80;;
43429;SDS011;29028;43.234;27.896;2023-01-19T15:25:24;10.18;;;2.65;;
43429;SDS011;29028;43.234;27.896;2023-01-19T15:25:45;7.47;;;2.40;;
43429;SDS011;29028;43.234;27.896;2023-01-19T15:26:06;7.70;;;2.40;;
43429;SDS011;29028;43.234;27.896;2023-01-19T15:26:32;8.68;;;2.30;;
43429;SDS011;29028;43.234;27.896;2023-01-19T15:26:55;4.82;;;2.20;;
43429;SDS011;29028;43.234;27.896;2023-01-19T15:27:20;8.45;;;2.10;;
43429;SDS011;29028;43.234;27.896;2023-01-19T15:27:42;7.72;;;2.30;;
43429;SDS011;29028;43.234;27.896;2023-01-19T15:28:07;7.00;;;2.50;;
43429;SDS011;29028;43.234;27.896;2023-01-19T15:28:36;7.55;;;2.50;;
43429;SDS011;29028;43.234;27.896;2023-01-19T15:28:57;9.57;;;2.63;;
43429;SDS011;29028;43.234;27.896;2023-01-19T15:29:20;7.90;;;2.60;;
43429;SDS011;29028;43.234;27.896;2023-01-19T15:29:42;6.68;;;2.30;;
43429;SDS011;29028;43.234;27.896;2023-01-19T15:30:05;7.07;;;2.15;;
43429;SDS011;29028;43.234;27.896;2023-01-19T15:30:33;5.57;;;2.38;;
43429;SDS011;29028;43.234;27.896;2023-01-19T15:30:54;7.00;;;2.42;;
43429;SDS011;29028;43.234;27.896;2023-01-19T15:31:17;7.88;;;2.55;;
43429;SDS011;29028;43.234;27.896;2023-01-19T15:31:40;7.38;;;2.63;;
43429;SDS011;29028;43.234;27.896;2023-01-19T15:32:00;7.40;;;2.70;;
43429;SDS011;29028;43.234;27.896;2023-01-19T15:32:23;8.35;;;3.15;;
43429;SDS011;29028;43.234;27.896;2023-01-19T15:32:43;8.57;;;3.20;;
43429;SDS011;29028;43.234;27.896;2023-01-19T15:33:05;10.15;;;2.95;;
43429;SDS011;29028;43.234;27.896;2023-01-19T15:33:27;9.85;;;3.10;;
43429;SDS011;29028;43.234;27.896;2023-01-19T15:33:49;6.95;;;2.55;;
43429;SDS011;29028;43.234;27.896;2023-01-19T15:34:10;6.97;;;2.30;;
43429;SDS011;29028;43.234;27.896;2023-01-19T15:34:33;6.67;;;2.03;;
43429;SDS011;29028;43.234;27.896;2023-01-19T15:34:55;6.43;;;2.00;;
43429;SDS011;29028;43.234;27.896;2023-01-19T15:35:17;8.53;;;2.20;;
43429;SDS011;29028;43.234;27.896;2023-01-19T15:35:39;8.38;;;2.53;;
43429;SDS011;29028;43.234;27.896;2023-01-19T15:36:00;6.25;;;2.50;;
43429;SDS011;29028;43.234;27.896;2023-01-19T15:36:21;6.95;;;2.30;;
43429;SDS011;29028;43.234;27.896;2023-01-19T15:36:44;7.35;;;2.22;;
43429;SDS011;29028;43.234;27.896;2023-01-19T15:37:06;7.75;;;2.60;;
43429;SDS011;29028;43.234;27.896;2023-01-19T15:37:27;7.00;;;2.65;;
43429;SDS011;29028;43.234;27.896;2023-01-19T15:37:48;8.13;;;2.60;;
43429;SDS011;29028;43.234;27.896;2023-01-19T15:38:10;6.75;;;2.40;;
43429;SDS011;29028;43.234;27.896;2023-01-19T15:38:31;9.27;;;2.60;;
43429;SDS011;29028;43.234;27.896;2023-01-19T15:38:52;12.63;;;2.85;;
43429;SDS011;29028;43.234;27.896;2023-01-19T15:39:13;9.40;;;3.00;;
43429;SDS011;29028;43.234;27.896;2023-01-19T15:39:35;9.38;;;3.05;;
43429;SDS011;29028;43.234;27.896;2023-01-19T15:39:55;13.98;;;2.83;;
43429;SDS011;29028;43.234;27.896;2023-01-19T15:40:17;12.20;;;2.60;;
43429;SDS011;29028;43.234;27.896;2023-01-19T15:40:41;7.68;;;2.63;;
43429;SDS011;29028;43.234;27.896;2023-01-19T15:41:02;7.38;;;2.50;;
43429;SDS011;29028;43.234;27.896;2023-01-19T15:41:24;7.03;;;2.53;;
43429;SDS011;29028;43.234;27.896;2023-01-19T15:41:48;9.40;;;3.38;;
43429;SDS011;29028;43.234;27.896;2023-01-19T15:42:09;9.73;;;3.00;;
43429;SDS011;29028;43.234;27.896;2023-01-19T15:42:33;9.88;;;3.20;;
43429;SDS011;29028;43.234;27.896;2023-01-19T15:42:54;8.57;;;2.93;;
43429;SDS011;29028;43.234;27.896;2023-01-19T15:43:15;8.75;;;2.40;;
43429;SDS011;29028;43.234;27.896;2023-01-19T15:43:36;7.78;;;2.55;;
43429;SDS011;29028;43.234;27.896;2023-01-19T15:43:57;8.82;;;2.60;;
43429;SDS011;29028;43.234;27.896;2023-01-19T15:44:18;8.10;;;2.42;;
43429;SDS011;29028;43.234;27.896;2023-01-19T15:44:40;7.67;;;2.27;;
43429;SDS011;29028;43.234;27.896;2023-01-19T15:45:01;5.07;;;1.90;;
43429;SDS011;29028;43.234;27.896;2023-01-19T15:45:33;7.45;;;2.17;;
43429;SDS011;29028;43.234;27.896;2023-01-19T15:45:58;9.38;;;2.72;;
43429;SDS011;29028;43.234;27.896;2023-01-19T15:46:21;9.95;;;2.75;;
43429;SDS011;29028;43.234;27.896;2023-01-19T15:46:43;8.55;;;2.50;;
43429;SDS011;29028;43.234;27.896;2023-01-19T15:47:04;7.22;;;2.25;;
43429;SDS011;29028;43.234;27.896;2023-01-19T15:47:25;7.05;;;2.47;;
43429;SDS011;29028;43.234;27.896;2023-01-19T15:47:46;8.10;;;2.80;;
43429;SDS011;29028;43.234;27.896;2023-01-19T15:48:08;8.95;;;2.83;;
43429;SDS011;29028;43.234;27.896;2023-01-19T15:48:31;7.07;;;2.38;;
43429;SDS011;29028;43.234;27.896;2023-01-19T15:48:52;5.30;;;2.00;;
43429;SDS011;29028;43.234;27.896;2023-01-19T15:49:13;7.75;;;2.13;;
43429;SDS011;29028;43.234;27.896;2023-01-19T15:49:36;8.55;;;2.13;;
43429;SDS011;29028;43.234;27.896;2023-01-19T15:49:57;10.48;;;2.38;;
43429;SDS011;29028;43.234;27.896;2023-01-19T15:50:18;11.33;;;2.50;;
43429;SDS011;29028;43.234;27.896;2023-01-19T15:50:40;8.25;;;2.17;;
43429;SDS011;29028;43.234;27.896;2023-01-19T15:51:03;7.60;;;1.95;;
43429;SDS011;29028;43.234;27.896;2023-01-19T15:51:24;9.15;;;1.98;;
43429;SDS011;29028;43.234;27.896;2023-01-19T15:51:46;7.47;;;2.10;;
43429;SDS011;29028;43.234;27.896;2023-01-19T15:52:07;6.43;;;2.30;;
43429;SDS011;29028;43.234;27.896;2023-01-19T15:52:28;8.30;;;2.60;;
43429;SDS011;29028;43.234;27.896;2023-01-19T15:52:49;7.03;;;2.40;;
43429;SDS011;29028;43.234;27.896;2023-01-19T15:53:11;5.95;;;2.10;;
43429;SDS011;29028;43.234;27.896;2023-01-19T15:53:35;7.78;;;2.20;;
43429;SDS011;29028;43.234;27.896;2023-01-19T15:53:55;8.77;;;2.47;;
43429;SDS011;29028;43.234;27.896;2023-01-19T15:54:16;9.35;;;2.60;;
43429;SDS011;29028;43.234;27.896;2023-01-19T15:54:39;7.43;;;2.10;;
43429;SDS011;29028;43.234;27.896;2023-01-19T15:54:59;8.23;;;2.00;;
43429;SDS011;29028;43.234;27.896;2023-01-19T15:55:20;8.52;;;2.17;;
43429;SDS011;29028;43.234;27.896;2023-01-19T15:55:41;6.70;;;2.20;;
43429;SDS011;29028;43.234;27.896;2023-01-19T15:56:04;9.27;;;2.50;;
43429;SDS011;29028;43.234;27.896;2023-01-19T15:56:25;7.72;;;2.55;;
43429;SDS011;29028;43.234;27.896;2023-01-19T15:56:47;6.78;;;1.92;;
43429;SDS011;29028;43.234;27.896;2023-01-19T15:57:10;7.20;;;1.95;;
43429;SDS011;29028;43.234;27.896;2023-01-19T15:57:31;8.20;;;1.90;;
43429;SDS011;29028;43.234;27.896;2023-01-19T15:57:54;6.15;;;2.20;;
43429;SDS011;29028;43.234;27.896;2023-01-19T15:58:20;9.32;;;2.45;;
43429;SDS011;29028;43.234;27.896;2023-01-19T15:58:42;6.47;;;2.15;;
43429;SDS011;29028;43.234;27.896;2023-01-19T15:59:03;7.25;;;2.22;;
43429;SDS011;29028;43.234;27.896;2023-01-19T15:59:24;8.77;;;2.00;;
43429;SDS011;29028;43.234;27.896;2023-01-19T15:59:46;7.47;;;2.15;;
43429;SDS011;29028;43.234;27.896;2023-01-19T16:00:07;8.00;;;2.23;;
43429;SDS011;29028;43.234;27.896;2023-01-19T16:00:29;6.75;;;2.10;;
43429;SDS011;29028;43.234;27.896;2023-01-19T16:00:54;7.70;;;2.15;;
43429;SDS011;29028;43.234;27.896;2023-01-19T16:01:17;8.23;;;2.10;;
43429;SDS011;29028;43.234;27.896;2023-01-19T16:01:39;5.70;;;1.80;;
43429;SDS011;29028;43.234;27.896;2023-01-19T16:02:00;7.28;;;1.95;;
43429;SDS011;29028;43.234;27.896;2023-01-19T16:02:22;6.47;;;1.90;;
43429;SDS011;29028;43.234;27.896;2023-01-19T16:02:43;6.75;;;2.08;;
43429;SDS011;29028;43.234;27.896;2023-01-19T16:03:04;7.90;;;2.00;;
43429;SDS011;29028;43.234;27.896;2023-01-19T16:03:26;6.97;;;2.10;;
43429;SDS011;29028;43.234;27.896;2023-01-19T16:03:47;7.43;;;2.47;;
43429;SDS011;29028;43.234;27.896;2023-01-19T16:04:08;8.68;;;2.70;;
43429;SDS011;29028;43.234;27.896;2023-01-19T16:04:31;8.63;;;2.47;;
43429;SDS011;29028;43.234;27.896;2023-01-19T16:04:53;8.25;;;2.05;;
43429;SDS011;29028;43.234;27.896;2023-01-19T16:05:14;6.50;;;1.98;;
43429;SDS011;29028;43.234;27.896;2023-01-19T16:05:35;7.70;;;2.10;;
43429;SDS011;29028;43.234;27.896;2023-01-19T16:05:58;6.18;;;2.00;;
43429;SDS011;29028;43.234;27.896;2023-01-19T16:06:19;7.07;;;2.10;;
43429;SDS011;29028;43.234;27.896;2023-01-19T16:06:40;8.67;;;2.10;;
43429;SDS011;29028;43.234;27.896;2023-01-19T16:07:02;8.18;;;1.92;;
43429;SDS011;29028;43.234;27.896;2023-01-19T16:07:23;7.30;;;2.10;;
43429;SDS011;29028;43.234;27.896;2023-01-19T16:07:44;6.38;;;2.22;;
43429;SDS011;29028;43.234;27.896;2023-01-19T16:08:04;6.80;;;2.00;;
43429;SDS011;29028;43.234;27.896;2023-01-19T16:08:27;6.50;;;2.30;;
43429;SDS011;29028;43.234;27.896;2023-01-19T16:08:48;8.40;;;2.10;;
43429;SDS011;29028;43.234;27.896;2023-01-19T16:09:08;7.47;;;2.07;;
43429;SDS011;29028;43.234;27.896;2023-01-19T16:09:33;6.88;;;2.42;;
43429;SDS011;29028;43.234;27.896;2023-01-19T16:09:54;8.55;;;2.20;;
43429;SDS011;29028;43.234;27.896;2023-01-19T16:10:15;8.75;;;2.10;;
43429;SDS011;29028;43.234;27.896;2023-01-19T16:10:36;6.53;;;2.17;;
43429;SDS011;29028;43.234;27.896;2023-01-19T16:11:01;5.97;;;2.10;;
43429;SDS011;29028;43.234;27.896;2023-01-19T16:11:24;7.40;;;2.47;;
43429;SDS011;29028;43.234;27.896;2023-01-19T16:11:45;6.43;;;2.00;;
43429;SDS011;29028;43.234;27.896;2023-01-19T16:12:06;7.82;;;2.40;;
43429;SDS011;29028;43.234;27.896;2023-01-19T16:12:27;6.18;;;2.25;;
43429;SDS011;29028;43.234;27.896;2023-01-19T16:12:49;7.05;;;2.03;;
43429;SDS011;29028;43.234;27.896;2023-01-19T16:13:10;7.53;;;2.00;;
43429;SDS011;29028;43.234;27.896;2023-01-19T16:13:31;6.03;;;1.95;;
43429;SDS011;29028;43.234;27.896;2023-01-19T16:13:52;7.13;;;2.03;;
43429;SDS011;29028;43.234;27.896;2023-01-19T16:14:14;7.50;;;2.30;;
43429;SDS011;29028;43.234;27.896;2023-01-19T16:14:35;8.63;;;2.13;;
43429;SDS011;29028;43.234;27.896;2023-01-19T16:14:55;6.75;;;1.90;;
43429;SDS011;29028;43.234;27.896;2023-01-19T16:15:17;5.73;;;1.87;;
43429;SDS011;29028;43.234;27.896;2023-01-19T16:15:38;5.90;;;1.97;;
43429;SDS011;29028;43.234;27.896;2023-01-19T16:16:01;6.10;;;1.98;;
43429;SDS011;29028;43.234;27.896;2023-01-19T16:16:24;7.25;;;1.90;;
43429;SDS011;29028;43.234;27.896;2023-01-19T16:16:47;9.18;;;2.03;;
43429;SDS011;29028;43.234;27.896;2023-01-19T16:17:08;7.07;;;1.90;;
43429;SDS011;29028;43.234;27.896;2023-01-19T16:17:30;6.63;;;1.80;;
43429;SDS011;29028;43.234;27.896;2023-01-19T16:17:50;7.18;;;1.95;;
43429;SDS011;29028;43.234;27.896;2023-01-19T16:18:11;5.57;;;1.80;;
43429;SDS011;29028;43.234;27.896;2023-01-19T16:18:32;7.50;;;2.10;;
43429;SDS011;29028;43.234;27.896;2023-01-19T16:18:54;7.35;;;2.15;;
43429;SDS011;29028;43.234;27.896;2023-01-19T16:19:15;4.97;;;2.00;;
43429;SDS011;29028;43.234;27.896;2023-01-19T16:19:36;5.63;;;1.92;;
43429;SDS011;29028;43.234;27.896;2023-01-19T16:19:59;6.45;;;2.00;;
43429;SDS011;29028;43.234;27.896;2023-01-19T16:20:20;8.00;;;2.20;;
43429;SDS011;29028;43.234;27.896;2023-01-19T16:20:41;7.30;;;2.50;;
43429;SDS011;29028;43.234;27.896;2023-01-19T16:21:02;7.63;;;2.20;;
43429;SDS011;29028;43.234;27.896;2023-01-19T16:21:24;7.95;;;2.30;;
43429;SDS011;29028;43.234;27.896;2023-01-19T16:21:44;5.05;;;2.00;;
43429;SDS011;29028;43.234;27.896;2023-01-19T16:22:07;6.10;;;1.95;;
43429;SDS011;29028;43.234;27.896;2023-01-19T16:22:28;6.03;;;1.98;;
43429;SDS011;29028;43.234;27.896;2023-01-19T16:22:49;7.60;;;2.50;;
43429;SDS011;29028;43.234;27.896;2023-01-19T16:23:09;5.72;;;2.17;;
43429;SDS011;29028;43.234;27.896;2023-01-19T16:23:31;7.60;;;2.17;;
43429;SDS011;29028;43.234;27.896;2023-01-19T16:23:52;8.50;;;2.45;;
43429;SDS011;29028;43.234;27.896;2023-01-19T16:24:13;8.10;;;2.17;;
43429;SDS011;29028;43.234;27.896;2023-01-19T16:24:34;7.38;;;2.38;;
43429;SDS011;29028;43.234;27.896;2023-01-19T16:24:55;6.60;;;1.88;;
43429;SDS011;29028;43.234;27.896;2023-01-19T16:25:16;5.60;;;2.17;;
43429;SDS011;29028;43.234;27.896;2023-01-19T16:25:37;5.70;;;2.45;;
43429;SDS011;29028;43.234;27.896;2023-01-19T16:25:59;7.68;;;2.28;;
43429;SDS011;29028;43.234;27.896;2023-01-19T16:26:25;7.80;;;2.42;;
43429;SDS011;29028;43.234;27.896;2023-01-19T16:26:48;8.45;;;2.70;;
43429;SDS011;29028;43.234;27.896;2023-01-19T16:27:10;8.38;;;2.70;;
43429;SDS011;29028;43.234;27.896;2023-01-19T16:27:30;6.50;;;2.35;;
43429;SDS011;29028;43.234;27.896;2023-01-19T16:27:51;7.10;;;2.30;;
43429;SDS011;29028;43.234;27.896;2023-01-19T16:28:12;6.73;;;2.30;;
43429;SDS011;29028;43.234;27.896;2023-01-19T16:28:34;6.68;;;2.42;;
43429;SDS011;29028;43.234;27.896;2023-01-19T16:28:57;7.03;;;2.15;;
43429;SDS011;29028;43.234;27.896;2023-01-19T16:29:18;6.45;;;2.20;;
43429;SDS011;29028;43.234;27.896;2023-01-19T16:29:41;6.40;;;2.15;;
43429;SDS011;29028;43.234;27.896;2023-01-19T16:30:01;6.30;;;2.30;;
43429;SDS011;29028;43.234;27.896;2023-01-19T16:30:24;5.13;;;2.22;;
43429;SDS011;29028;43.234;27.896;2023-01-19T16:30:45;6.32;;;2.13;;
43429;SDS011;29028;43.234;27.896;2023-01-19T16:31:06;7.50;;;2.30;;
43429;SDS011;29028;43.234;27.896;2023-01-19T16:31:27;6.77;;;2.37;;
43429;SDS011;29028;43.234;27.896;2023-01-19T16:31:49;7.47;;;2.38;;
43429;SDS011;29028;43.234;27.896;2023-01-19T16:32:10;7.03;;;2.33;;
43429;SDS011;29028;43.234;27.896;2023-01-19T16:32:31;5.72;;;2.15;;
43429;SDS011;29028;43.234;27.896;2023-01-19T16:32:52;5.72;;;2.10;;
43429;SDS011;29028;43.234;27.896;2023-01-19T16:33:14;5.07;;;2.17;;
43429;SDS011;29028;43.234;27.896;2023-01-19T16:33:35;5.13;;;2.10;;
43429;SDS011;29028;43.234;27.896;2023-01-19T16:33:55;5.50;;;2.10;;
43429;SDS011;29028;43.234;27.896;2023-01-19T16:34:17;5.88;;;2.17;;
43429;SDS011;29028;43.234;27.896;2023-01-19T16:34:38;5.45;;;1.88;;
43429;SDS011;29028;43.234;27.896;2023-01-19T16:35:00;4.90;;;1.90;;
43429;SDS011;29028;43.234;27.896;2023-01-19T16:35:21;4.30;;;2.10;;
43429;SDS011;29028;43.234;27.896;2023-01-19T16:35:43;6.45;;;2.20;;
43429;SDS011;29028;43.234;27.896;2023-01-19T16:36:16;6.22;;;2.05;;
43429;SDS011;29028;43.234;27.896;2023-01-19T16:36:38;6.97;;;2.40;;
43429;SDS011;29028;43.234;27.896;2023-01-19T16:37:02;6.45;;;2.28;;
43429;SDS011;29028;43.234;27.896;2023-01-19T16:37:23;5.88;;;2.10;;
43429;SDS011;29028;43.234;27.896;2023-01-19T16:37:48;6.53;;;2.10;;
43429;SDS011;29028;43.234;27.896;2023-01-19T16:38:10;6.03;;;2.00;;
43429;SDS011;29028;43.234;27.896;2023-01-19T16:38:32;7.80;;;2.35;;
43429;SDS011;29028;43.234;27.896;2023-01-19T16:38:52;6.97;;;2.35;;
43429;SDS011;29028;43.234;27.896;2023-01-19T16:39:14;6.55;;;2.10;;
43429;SDS011;29028;43.234;27.896;2023-01-19T16:39:36;7.57;;;1.98;;
43429;SDS011;29028;43.234;27.896;2023-01-19T16:39:57;7.40;;;2.20;;
43429;SDS011;29028;43.234;27.896;2023-01-19T16:40:18;6.28;;;2.17;;
43429;SDS011;29028;43.234;27.896;2023-01-19T16:40:39;6.57;;;2.40;;
43429;SDS011;29028;43.234;27.896;2023-01-19T16:41:03;5.00;;;1.92;;
43429;SDS011;29028;43.234;27.896;2023-01-19T16:41:24;4.77;;;2.03;;
43429;SDS011;29028;43.234;27.896;2023-01-19T16:41:45;5.37;;;2.10;;
43429;SDS011;29028;43.234;27.896;2023-01-19T16:42:06;7.28;;;2.22;;
43429;SDS011;29028;43.234;27.896;2023-01-19T16:42:28;5.93;;;2.03;;
43429;SDS011;29028;43.234;27.896;2023-01-19T16:42:49;6.57;;;2.03;;
43429;SDS011;29028;43.234;27.896;2023-01-19T16:43:10;5.50;;;2.10;;
43429;SDS011;29028;43.234;27.896;2023-01-19T16:43:31;5.22;;;2.30;;
43429;SDS011;29028;43.234;27.896;2023-01-19T16:43:53;5.95;;;2.28;;
43429;SDS011;29028;43.234;27.896;2023-01-19T16:44:15;7.20;;;2.42;;
43429;SDS011;29028;43.234;27.896;2023-01-19T16:44:36;7.47;;;2.17;;
43429;SDS011;29028;43.234;27.896;2023-01-19T16:44:58;7.50;;;2.20;;
43429;SDS011;29028;43.234;27.896;2023-01-19T16:45:19;7.70;;;2.47;;
43429;SDS011;29028;43.234;27.896;2023-01-19T16:45:54;6.00;;;2.50;;
43429;SDS011;29028;43.234;27.896;2023-01-19T16:46:18;5.72;;;2.38;;
43429;SDS011;29028;43.234;27.896;2023-01-19T16:46:41;6.75;;;2.13;;
43429;SDS011;29028;43.234;27.896;2023-01-19T16:47:03;5.43;;;2.22;;
43429;SDS011;29028;43.234;27.896;2023-01-19T16:47:25;5.47;;;2.20;;
43429;SDS011;29028;43.234;27.896;2023-01-19T16:47:46;7.10;;;2.50;;
43429;SDS011;29028;43.234;27.896;2023-01-19T16:48:09;4.95;;;2.40;;
43429;SDS011;29028;43.234;27.896;2023-01-19T16:48:30;6.55;;;2.25;;
43429;SDS011;29028;43.234;27.896;2023-01-19T16:48:52;8.23;;;2.20;;
43429;SDS011;29028;43.234;27.896;2023-01-19T16:49:18;7.15;;;1.90;;
43429;SDS011;29028;43.234;27.896;2023-01-19T16:49:42;4.90;;;2.05;;
43429;SDS011;29028;43.234;27.896;2023-01-19T16:50:04;4.68;;;1.92;;
43429;SDS011;29028;43.234;27.896;2023-01-19T16:50:26;5.18;;;1.95;;
43429;SDS011;29028;43.234;27.896;2023-01-19T16:50:56;6.72;;;2.15;;
43429;SDS011;29028;43.234;27.896;2023-01-19T16:51:18;6.55;;;1.85;;
43429;SDS011;29028;43.234;27.896;2023-01-19T16:51:39;6.18;;;2.10;;
43429;SDS011;29028;43.234;27.896;2023-01-19T16:52:02;5.75;;;1.90;;
43429;SDS011;29028;43.234;27.896;2023-01-19T16:52:23;5.65;;;1.85;;
43429;SDS011;29028;43.234;27.896;2023-01-19T16:52:43;5.40;;;2.03;;
43429;SDS011;29028;43.234;27.896;2023-01-19T16:53:06;5.63;;;2.08;;
43429;SDS011;29028;43.234;27.896;2023-01-19T16:53:27;7.13;;;2.00;;
43429;SDS011;29028;43.234;27.896;2023-01-19T16:53:48;5.03;;;2.03;;
43429;SDS011;29028;43.234;27.896;2023-01-19T16:54:10;4.13;;;1.80;;
43429;SDS011;29028;43.234;27.896;2023-01-19T16:54:32;5.50;;;2.08;;
43429;SDS011;29028;43.234;27.896;2023-01-19T16:54:53;6.05;;;1.90;;
43429;SDS011;29028;43.234;27.896;2023-01-19T16:55:14;4.80;;;2.03;;
43429;SDS011;29028;43.234;27.896;2023-01-19T16:55:36;6.72;;;2.20;;
43429;SDS011;29028;43.234;27.896;2023-01-19T16:56:02;6.30;;;2.00;;
43429;SDS011;29028;43.234;27.896;2023-01-19T16:56:25;7.18;;;2.30;;
43429;SDS011;29028;43.234;27.896;2023-01-19T16:56:46;5.72;;;2.28;;
43429;SDS011;29028;43.234;27.896;2023-01-19T16:57:08;5.93;;;2.30;;
43429;SDS011;29028;43.234;27.896;2023-01-19T16:57:30;6.72;;;2.40;;
43429;SDS011;29028;43.234;27.896;2023-01-19T16:57:51;5.97;;;2.28;;
43429;SDS011;29028;43.234;27.896;2023-01-19T16:58:14;6.32;;;2.20;;
43429;SDS011;29028;43.234;27.896;2023-01-19T16:58:35;7.30;;;2.70;;
43429;SDS011;29028;43.234;27.896;2023-01-19T16:58:57;7.22;;;2.38;;
43429;SDS011;29028;43.234;27.896;2023-01-19T16:59:19;7.47;;;2.45;;
43429;SDS011;29028;43.234;27.896;2023-01-19T16:59:41;6.07;;;2.53;;
43429;SDS011;29028;43.234;27.896;2023-01-19T17:00:04;7.07;;;2.20;;
43429;SDS011;29028;43.234;27.896;2023-01-19T17:00:28;7.95;;;2.28;;
43429;SDS011;29028;43.234;27.896;2023-01-19T17:00:49;6.85;;;2.30;;
43429;SDS011;29028;43.234;27.896;2023-01-19T17:01:10;5.73;;;2.07;;
43429;SDS011;29028;43.234;27.896;2023-01-19T17:01:33;4.50;;;2.10;;
43429;SDS011;29028;43.234;27.896;2023-01-19T17:01:54;6.25;;;2.40;;
43429;SDS011;29028;43.234;27.896;2023-01-19T17:02:15;5.55;;;2.33;;
43429;SDS011;29028;43.234;27.896;2023-01-19T17:02:37;6.03;;;2.20;;
43429;SDS011;29028;43.234;27.896;2023-01-19T17:02:59;6.57;;;2.25;;
43429;SDS011;29028;43.234;27.896;2023-01-19T17:03:20;6.07;;;2.30;;
43429;SDS011;29028;43.234;27.896;2023-01-19T17:03:41;6.53;;;2.45;;
43429;SDS011;29028;43.234;27.896;2023-01-19T17:04:02;6.32;;;2.40;;
43429;SDS011;29028;43.234;27.896;2023-01-19T17:04:25;7.50;;;2.40;;
43429;SDS011;29028;43.234;27.896;2023-01-19T17:04:46;6.55;;;2.45;;
43429;SDS011;29028;43.234;27.896;2023-01-19T17:05:08;7.18;;;2.65;;
43429;SDS011;29028;43.234;27.896;2023-01-19T17:05:30;7.05;;;2.67;;
43429;SDS011;29028;43.234;27.896;2023-01-19T17:05:51;5.97;;;2.40;;
43429;SDS011;29028;43.234;27.896;2023-01-19T17:06:12;6.47;;;2.42;;
43429;SDS011;29028;43.234;27.896;2023-01-19T17:06:37;5.40;;;2.50;;
43429;SDS011;29028;43.234;27.896;2023-01-19T17:06:58;7.75;;;2.83;;
43429;SDS011;29028;43.234;27.896;2023-01-19T17:07:18;9.63;;;2.63;;
43429;SDS011;29028;43.234;27.896;2023-01-19T17:07:40;7.80;;;2.55;;
43429;SDS011;29028;43.234;27.896;2023-01-19T17:08:01;6.00;;;2.20;;
43429;SDS011;29028;43.234;27.896;2023-01-19T17:08:22;8.63;;;2.83;;
43429;SDS011;29028;43.234;27.896;2023-01-19T17:08:43;8.45;;;3.70;;
43429;SDS011;29028;43.234;27.896;2023-01-19T17:09:05;7.13;;;2.47;;
43429;SDS011;29028;43.234;27.896;2023-01-19T17:09:28;7.25;;;2.38;;
43429;SDS011;29028;43.234;27.896;2023-01-19T17:09:49;5.65;;;2.10;;
43429;SDS011;29028;43.234;27.896;2023-01-19T17:10:11;5.70;;;2.13;;
43429;SDS011;29028;43.234;27.896;2023-01-19T17:10:34;6.45;;;2.10;;
43429;SDS011;29028;43.234;27.896;2023-01-19T17:10:55;7.72;;;2.22;;
43429;SDS011;29028;43.234;27.896;2023-01-19T17:11:16;6.95;;;2.38;;
43429;SDS011;29028;43.234;27.896;2023-01-19T17:11:39;7.05;;;2.05;;
43429;SDS011;29028;43.234;27.896;2023-01-19T17:12:00;7.97;;;2.30;;
43429;SDS011;29028;43.234;27.896;2023-01-19T17:12:21;7.25;;;2.05;;
43429;SDS011;29028;43.234;27.896;2023-01-19T17:12:42;5.97;;;2.00;;
43429;SDS011;29028;43.234;27.896;2023-01-19T17:13:04;5.15;;;2.08;;
43429;SDS011;29028;43.234;27.896;2023-01-19T17:13:24;6.75;;;2.20;;
43429;SDS011;29028;43.234;27.896;2023-01-19T17:13:45;5.87;;;2.30;;
43429;SDS011;29028;43.234;27.896;2023-01-19T17:14:07;5.88;;;2.25;;